createdAt,value
2023-06-16T00:00:39.347Z,11.38
2023-06-16T00:03:06.894Z,11.36
2023-06-16T00:05:36.359Z,11.36
2023-06-16T00:08:04.957Z,11.32
2023-06-16T00:10:32.042Z,11.27
2023-06-16T00:12:58.923Z,11.27
2023-06-16T00:15:25.951Z,11.23
2023-06-16T00:17:53.907Z,11.21
2023-06-16T00:20:22.478Z,11.22
2023-06-16T00:22:50.259Z,11.19
2023-06-16T00:25:20.277Z,11.16
2023-06-16T00:27:47.468Z,11.06
2023-06-16T00:30:14.423Z,11.06
2023-06-16T00:32:41.553Z,11.01
2023-06-16T00:35:08.983Z,11.01
2023-06-16T00:37:35.883Z,10.81
2023-06-16T00:40:02.701Z,11.05
2023-06-16T00:42:29.589Z,11.03
2023-06-16T00:44:56.423Z,10.92
2023-06-16T00:47:23.264Z,10.88
2023-06-16T00:49:50.075Z,10.87
2023-06-16T00:52:16.929Z,10.82
2023-06-16T00:54:43.868Z,10.79
2023-06-16T00:57:10.781Z,10.67
2023-06-16T00:59:37.680Z,10.68
2023-06-16T01:02:05.120Z,10.65
2023-06-16T01:04:33.102Z,10.65
2023-06-16T01:07:23.054Z,10.67
2023-06-16T01:09:55.554Z,10.61
2023-06-16T01:12:26.786Z,10.63
2023-06-16T01:15:05.506Z,10.65
2023-06-16T01:17:35.159Z,10.69
2023-06-16T01:20:10.182Z,10.78
2023-06-16T01:23:06.101Z,10.78
2023-06-16T01:25:33.241Z,10.75
2023-06-16T01:28:01.795Z,10.85
2023-06-16T01:30:29.740Z,10.89
2023-06-16T01:32:57.623Z,11.08
2023-06-16T01:35:24.663Z,11.25
2023-06-16T01:37:52.044Z,11.40
2023-06-16T01:40:20.085Z,11.49
2023-06-16T01:42:48.367Z,11.62
2023-06-16T01:45:16.129Z,11.77
2023-06-16T01:47:44.379Z,11.88
2023-06-16T01:50:12.621Z,12.06
2023-06-16T01:52:39.809Z,12.20
2023-06-16T01:55:07.287Z,12.31
2023-06-16T01:57:35.466Z,12.41
2023-06-16T02:00:15.700Z,12.46
2023-06-16T02:02:44.834Z,12.51
2023-06-16T02:05:12.593Z,12.56
2023-06-16T02:07:42.321Z,12.62
2023-06-16T02:10:09.965Z,12.62
2023-06-16T02:12:36.827Z,12.65
2023-06-16T02:15:03.907Z,12.65
2023-06-16T02:17:31.362Z,12.70
2023-06-16T02:19:59.571Z,12.80
2023-06-16T02:22:26.388Z,12.83
2023-06-16T02:24:53.315Z,12.97
2023-06-16T02:27:20.147Z,13.04
2023-06-16T02:29:47.558Z,13.13
2023-06-16T02:32:14.369Z,13.15
2023-06-16T02:34:41.362Z,13.19
2023-06-16T02:37:08.260Z,13.21
2023-06-16T02:39:35.026Z,13.29
2023-06-16T02:42:01.804Z,13.39
2023-06-16T02:44:28.648Z,13.50
2023-06-16T02:46:56.100Z,13.63
2023-06-16T02:49:23.274Z,13.66
2023-06-16T02:51:51.010Z,13.71
2023-06-16T02:54:17.785Z,13.79
2023-06-16T02:56:44.585Z,13.88
2023-06-16T02:59:11.868Z,13.95
2023-06-16T03:01:38.756Z,14.11
2023-06-16T03:04:05.547Z,14.22
2023-06-16T03:06:35.916Z,14.33
2023-06-16T03:09:06.759Z,14.41
2023-06-16T03:11:33.909Z,14.41
2023-06-16T03:14:00.805Z,14.50
2023-06-16T03:16:28.598Z,14.52
2023-06-16T03:18:58.464Z,14.49
2023-06-16T03:21:25.882Z,14.54
2023-06-16T03:23:53.110Z,14.52
2023-06-16T03:26:20.081Z,14.51
2023-06-16T03:28:46.864Z,14.47
2023-06-16T03:31:13.740Z,14.56
2023-06-16T03:33:40.531Z,14.60
2023-06-16T03:36:08.057Z,14.64
2023-06-16T03:38:34.869Z,14.64
2023-06-16T03:41:01.711Z,14.61
2023-06-16T03:43:28.506Z,14.63
2023-06-16T03:45:55.567Z,14.67
2023-06-16T03:48:22.378Z,14.69
2023-06-16T03:50:49.197Z,14.74
2023-06-16T03:53:17.017Z,14.80
2023-06-16T03:55:44.349Z,14.90
2023-06-16T03:58:12.048Z,15.01
2023-06-16T04:00:38.894Z,15.09
2023-06-16T04:03:06.006Z,15.21
2023-06-16T04:05:34.020Z,15.21
2023-06-16T04:08:00.943Z,15.40
2023-06-16T04:10:27.765Z,15.47
2023-06-16T04:12:55.114Z,15.56
2023-06-16T04:15:21.997Z,15.62
2023-06-16T04:17:48.842Z,15.72
2023-06-16T04:20:15.826Z,15.88
2023-06-16T04:22:43.416Z,15.94
2023-06-16T04:25:10.599Z,16.00
2023-06-16T04:27:38.856Z,16.07
2023-06-16T04:30:09.343Z,16.13
2023-06-16T04:32:37.529Z,16.13
2023-06-16T04:35:05.799Z,16.12
2023-06-16T04:37:33.267Z,16.11
2023-06-16T04:40:00.375Z,16.17
2023-06-16T04:42:27.227Z,16.21
2023-06-16T04:44:54.137Z,16.32
2023-06-16T04:47:21.049Z,16.43
2023-06-16T04:49:48.407Z,16.50
2023-06-16T04:52:15.361Z,16.64
2023-06-16T04:54:42.615Z,16.76
2023-06-16T04:57:09.578Z,16.93
2023-06-16T04:59:36.495Z,17.02
2023-06-16T05:02:03.431Z,17.17
2023-06-16T05:04:30.336Z,17.31
2023-06-16T05:06:57.186Z,17.46
2023-06-16T05:09:24.009Z,17.73
2023-06-16T05:11:50.844Z,18.09
2023-06-16T05:14:17.744Z,18.42
2023-06-16T05:16:44.620Z,18.60
2023-06-16T05:19:11.853Z,18.71
2023-06-16T05:21:38.728Z,18.92
2023-06-16T05:24:05.927Z,19.27
2023-06-16T05:26:32.726Z,19.59
2023-06-16T05:28:59.485Z,19.80
2023-06-16T05:31:26.443Z,19.79
2023-06-16T05:33:55.534Z,19.78
2023-06-16T05:36:25.552Z,19.98
2023-06-16T05:38:52.816Z,20.18
2023-06-16T05:41:24.645Z,20.57
2023-06-16T05:43:55.728Z,20.95
2023-06-16T05:46:23.092Z,21.41
2023-06-16T05:48:49.878Z,21.55
2023-06-16T05:51:16.811Z,22.26
2023-06-16T05:53:43.576Z,22.33
2023-06-16T05:56:10.631Z,22.33
2023-06-16T05:58:37.505Z,22.05
2023-06-16T06:01:05.139Z,21.65
2023-06-16T06:03:32.032Z,21.18
2023-06-16T06:05:59.116Z,20.72
2023-06-16T06:08:29.385Z,20.66
2023-06-16T06:10:56.550Z,21.27
2023-06-16T06:13:23.386Z,21.09
2023-06-16T06:15:50.907Z,20.80
2023-06-16T06:18:17.834Z,21.56
2023-06-16T06:20:46.196Z,21.98
2023-06-16T06:23:13.664Z,23.45
2023-06-16T06:25:43.606Z,24.74
2023-06-16T06:28:10.789Z,25.78
2023-06-16T06:30:38.298Z,26.55
2023-06-16T06:33:05.413Z,26.84
2023-06-16T06:35:32.391Z,27.52
2023-06-16T06:37:59.596Z,28.44
2023-06-16T06:40:26.907Z,28.98
2023-06-16T06:42:54.069Z,29.08
2023-06-16T06:45:20.866Z,29.08
2023-06-16T06:47:47.728Z,29.31
2023-06-16T06:50:14.594Z,29.46
2023-06-16T06:52:41.404Z,29.69
2023-06-16T06:55:08.967Z,29.90
2023-06-16T06:57:35.908Z,30.09
2023-06-16T07:00:02.848Z,30.47
2023-06-16T07:02:29.740Z,30.82
2023-06-16T07:04:56.650Z,31.02
2023-06-16T07:07:23.580Z,31.21
2023-06-16T07:09:50.416Z,30.13
2023-06-16T07:12:17.613Z,29.79
2023-06-16T07:14:46.587Z,30.01
2023-06-16T07:17:13.342Z,30.37
2023-06-16T07:19:40.158Z,30.64
2023-06-16T07:22:07.021Z,31.28
2023-06-16T07:24:33.828Z,32.03
2023-06-16T07:27:02.822Z,32.94
2023-06-16T07:29:29.735Z,33.16
2023-06-16T07:31:56.526Z,32.73
2023-06-16T07:34:23.294Z,32.15
2023-06-16T07:36:50.100Z,31.34
2023-06-16T07:39:18.383Z,31.00
2023-06-16T07:41:45.233Z,30.58
2023-06-16T07:44:12.026Z,29.98
2023-06-16T07:46:40.975Z,30.17
2023-06-16T07:49:08.075Z,30.40
2023-06-16T07:51:35.001Z,30.48
2023-06-16T07:54:01.912Z,30.59
2023-06-16T07:56:29.722Z,30.87
2023-06-16T07:58:56.864Z,31.16
2023-06-16T08:01:23.669Z,31.15
2023-06-16T08:03:50.755Z,30.75
2023-06-16T08:06:18.263Z,30.86
2023-06-16T08:08:45.358Z,30.75
2023-06-16T08:11:12.280Z,30.57
2023-06-16T08:13:39.127Z,30.97
2023-06-16T08:16:07.267Z,30.61
2023-06-16T08:18:34.204Z,30.87
2023-06-16T08:21:01.294Z,31.15
2023-06-16T08:23:28.189Z,31.39
2023-06-16T08:25:55.964Z,31.50
2023-06-16T08:28:23.593Z,31.45
2023-06-16T08:30:50.709Z,31.32
2023-06-16T08:33:17.698Z,30.94
2023-06-16T08:35:44.566Z,30.92
2023-06-16T08:38:11.574Z,31.05
2023-06-16T08:40:39.003Z,29.94
2023-06-16T08:43:08.876Z,30.80
2023-06-16T08:45:38.311Z,31.96
2023-06-16T08:48:06.918Z,32.50
2023-06-16T08:50:33.959Z,31.32
2023-06-16T08:53:01.483Z,29.05
2023-06-16T08:55:30.277Z,29.53
2023-06-16T08:57:57.162Z,28.68
2023-06-16T09:00:24.242Z,28.30
2023-06-16T09:02:52.075Z,28.53
2023-06-16T09:05:19.920Z,29.74
2023-06-16T09:07:48.644Z,30.85
2023-06-16T09:10:16.155Z,31.29
2023-06-16T09:12:43.674Z,31.39
2023-06-16T09:15:11.655Z,31.67
2023-06-16T09:17:39.374Z,31.83
2023-06-16T09:20:09.513Z,32.24
2023-06-16T09:22:37.496Z,32.70
2023-06-16T09:25:10.282Z,32.94
2023-06-16T09:27:52.039Z,32.94
2023-06-16T09:30:22.838Z,33.21
2023-06-16T09:32:51.090Z,33.13
2023-06-16T09:35:28.075Z,34.11
2023-06-16T09:37:57.817Z,34.71
2023-06-16T09:40:29.237Z,34.91
2023-06-16T09:42:58.713Z,35.19
2023-06-16T09:45:28.262Z,34.77
2023-06-16T09:47:55.321Z,34.94
2023-06-16T09:50:27.913Z,35.05
2023-06-16T09:52:55.485Z,34.84
2023-06-16T09:55:22.403Z,34.98
2023-06-16T09:57:49.165Z,34.57
2023-06-16T10:00:19.530Z,33.73
2023-06-16T10:02:48.078Z,34.79
2023-06-16T10:05:17.268Z,35.21
2023-06-16T10:07:44.213Z,35.40
2023-06-16T10:10:11.811Z,35.64
2023-06-16T10:12:40.799Z,35.54
2023-06-16T10:15:08.628Z,35.97
2023-06-16T10:17:35.495Z,36.22
2023-06-16T10:20:02.390Z,36.47
2023-06-16T10:22:29.210Z,36.72
2023-06-16T10:24:56.399Z,36.42
2023-06-16T10:27:23.560Z,36.10
2023-06-16T10:29:52.913Z,36.27
2023-06-16T10:32:19.878Z,36.18
2023-06-16T10:34:50.315Z,35.69
2023-06-16T10:37:17.695Z,35.79
2023-06-16T10:39:45.003Z,35.04
2023-06-16T10:42:13.173Z,35.17
2023-06-16T10:44:40.105Z,36.01
2023-06-16T10:47:10.013Z,34.83
2023-06-16T10:50:01.365Z,36.01
2023-06-16T10:52:44.523Z,37.37
2023-06-16T10:55:26.571Z,35.36
2023-06-16T10:58:22.437Z,33.48
2023-06-16T11:01:03.234Z,33.55
2023-06-16T11:04:00.920Z,33.13
2023-06-16T11:06:27.864Z,32.88
2023-06-16T11:08:58.632Z,34.80
2023-06-16T11:11:33.965Z,34.28
2023-06-16T11:14:02.215Z,32.89
2023-06-16T11:16:29.657Z,31.45
2023-06-16T11:18:58.316Z,29.66
2023-06-16T11:21:26.567Z,29.19
2023-06-16T11:23:54.171Z,28.31
2023-06-16T11:26:23.001Z,27.74
2023-06-16T11:28:52.356Z,30.29
2023-06-16T11:31:20.587Z,31.79
2023-06-16T11:33:47.634Z,33.18
2023-06-16T11:36:18.261Z,33.31
2023-06-16T11:38:52.625Z,33.39
2023-06-16T11:41:28.370Z,34.16
2023-06-16T11:43:55.950Z,33.46
2023-06-16T11:46:31.617Z,30.45
2023-06-16T11:48:59.443Z,30.72
2023-06-16T11:51:27.280Z,30.74
2023-06-16T11:53:55.051Z,29.31
2023-06-16T11:56:24.284Z,29.77
2023-06-16T11:58:51.129Z,31.95
2023-06-16T12:01:18.110Z,33.47
2023-06-16T12:06:18.781Z,34.36
2023-06-16T12:08:46.380Z,32.86
2023-06-16T12:11:22.377Z,32.23
2023-06-16T12:13:50.278Z,32.95
2023-06-16T12:16:17.018Z,33.57
2023-06-16T12:18:43.781Z,33.71
2023-06-16T12:21:21.443Z,34.65
2023-06-16T12:23:53.839Z,35.39
2023-06-16T12:26:28.962Z,35.95
2023-06-16T12:28:57.084Z,36.44
2023-06-16T12:31:27.480Z,36.40
2023-06-16T12:33:55.147Z,36.51
2023-06-16T12:36:23.154Z,36.60
2023-06-16T12:38:50.770Z,36.88
2023-06-16T12:41:18.000Z,36.65
2023-06-16T12:43:51.780Z,36.35
2023-06-16T12:46:19.013Z,35.98
2023-06-16T12:48:45.974Z,36.10
2023-06-16T12:51:14.758Z,35.91
2023-06-16T12:53:43.127Z,35.27
2023-06-16T12:56:10.960Z,35.75
2023-06-16T12:58:41.018Z,36.46
2023-06-16T13:01:09.527Z,36.96
2023-06-16T13:03:37.352Z,36.98
2023-06-16T13:06:04.401Z,36.80
2023-06-16T13:08:31.705Z,36.56
2023-06-16T13:10:58.524Z,36.88
2023-06-16T13:13:25.416Z,35.92
2023-06-16T13:15:52.252Z,35.94
2023-06-16T13:18:19.139Z,33.45
2023-06-16T13:20:46.043Z,31.46
2023-06-16T13:23:12.899Z,32.05
2023-06-16T13:25:39.684Z,33.01
2023-06-16T13:28:06.480Z,33.69
2023-06-16T13:30:33.285Z,34.25
2023-06-16T13:33:00.188Z,34.41
2023-06-16T13:35:27.111Z,34.94
2023-06-16T13:37:54.540Z,35.00
2023-06-16T13:40:21.643Z,34.77
2023-06-16T13:42:48.608Z,34.88
2023-06-16T13:45:16.068Z,34.76
2023-06-16T13:47:42.937Z,35.18
2023-06-16T13:50:10.253Z,35.35
2023-06-16T13:52:38.238Z,35.37
2023-06-16T13:55:05.764Z,35.16
2023-06-16T13:57:32.632Z,35.49
2023-06-16T14:00:00.977Z,34.91
2023-06-16T14:02:27.962Z,34.89
2023-06-16T14:04:54.840Z,33.59
2023-06-16T14:07:21.642Z,31.01
2023-06-16T14:09:48.555Z,28.89
2023-06-16T14:12:15.344Z,28.24
2023-06-16T14:14:42.164Z,29.88
2023-06-16T14:17:08.966Z,31.51
2023-06-16T14:19:36.040Z,31.81
2023-06-16T14:22:03.771Z,30.73
2023-06-16T14:24:30.825Z,30.05
2023-06-16T14:26:57.746Z,30.32
2023-06-16T14:29:24.495Z,30.50
2023-06-16T14:31:51.272Z,30.05
2023-06-16T14:34:18.136Z,30.35
2023-06-16T14:36:44.969Z,29.89
2023-06-16T14:39:12.018Z,28.46
2023-06-16T14:41:40.889Z,28.11
2023-06-16T14:44:07.819Z,28.31
2023-06-16T14:46:34.669Z,28.16
2023-06-16T14:49:01.476Z,28.29
2023-06-16T14:51:28.315Z,28.95
2023-06-16T14:53:55.086Z,29.11
2023-06-16T14:56:21.893Z,29.32
2023-06-16T14:58:48.750Z,28.99
2023-06-16T15:01:15.603Z,28.48
2023-06-16T15:03:45.172Z,28.27
2023-06-16T15:06:14.571Z,27.83
2023-06-16T15:08:43.050Z,27.69
2023-06-16T15:11:09.820Z,26.55
2023-06-16T15:13:36.637Z,26.65
2023-06-16T15:16:03.616Z,26.15
2023-06-16T15:18:31.049Z,26.15
2023-06-16T15:20:57.874Z,25.88
2023-06-16T15:23:24.656Z,25.50
2023-06-16T15:25:52.452Z,25.47
2023-06-16T15:28:19.285Z,24.59
2023-06-16T15:30:47.125Z,24.35
2023-06-16T15:33:14.022Z,24.21
2023-06-16T15:35:40.853Z,23.67
2023-06-16T15:38:10.342Z,23.45
2023-06-16T15:40:37.765Z,23.27
2023-06-16T15:43:09.084Z,23.05
2023-06-16T15:45:35.913Z,23.00
2023-06-16T15:48:02.805Z,22.74
2023-06-16T15:50:29.783Z,22.74
2023-06-16T15:52:56.562Z,22.93
2023-06-16T15:55:23.512Z,22.98
2023-06-16T15:57:50.278Z,23.02
2023-06-16T16:00:17.303Z,22.74
2023-06-16T16:02:45.323Z,22.60
2023-06-16T16:05:12.302Z,22.39
2023-06-16T16:07:39.156Z,22.54
2023-06-16T16:10:06.551Z,22.40
2023-06-16T16:12:33.254Z,22.35
2023-06-16T16:15:00.356Z,22.32
2023-06-16T16:17:27.793Z,22.39
2023-06-16T16:19:55.316Z,22.37
2023-06-16T16:22:22.381Z,22.08
2023-06-16T16:27:16.960Z,21.81
2023-06-16T16:29:43.749Z,21.86
2023-06-16T16:32:10.812Z,22.00
2023-06-16T16:34:37.676Z,22.08
2023-06-16T16:37:04.679Z,22.12
2023-06-16T16:39:31.964Z,22.23
2023-06-16T16:41:58.878Z,22.32
2023-06-16T16:44:32.927Z,22.06
2023-06-16T16:47:01.250Z,22.00
2023-06-16T16:49:28.562Z,21.72
2023-06-16T16:51:55.965Z,21.47
2023-06-16T16:54:23.713Z,21.32
2023-06-16T16:56:50.826Z,21.34
2023-06-16T16:59:18.552Z,21.43
2023-06-16T17:01:49.883Z,21.30
2023-06-16T17:04:19.438Z,21.18
2023-06-16T17:06:46.358Z,21.14
2023-06-16T17:09:13.317Z,21.01
2023-06-16T17:11:40.772Z,20.94
2023-06-16T17:14:07.735Z,20.91
2023-06-16T17:16:34.584Z,20.70
2023-06-16T17:19:01.440Z,20.45
2023-06-16T17:21:28.166Z,20.41
2023-06-16T17:23:55.067Z,20.30
2023-06-16T17:26:21.863Z,20.18
2023-06-16T17:28:49.616Z,20.12
2023-06-16T17:31:16.514Z,20.05
2023-06-16T17:33:43.300Z,20.11
2023-06-16T17:36:10.145Z,19.92
2023-06-16T17:38:36.922Z,19.82
2023-06-16T17:41:03.772Z,19.84
2023-06-16T17:43:33.725Z,19.69
2023-06-16T17:46:00.655Z,19.59
2023-06-16T17:48:27.541Z,19.40
2023-06-16T17:50:54.351Z,19.41
2023-06-16T17:53:21.381Z,19.31
2023-06-16T17:55:48.389Z,19.26
2023-06-16T17:58:15.205Z,19.22
2023-06-16T18:00:42.078Z,19.16
2023-06-16T18:03:09.035Z,19.21
2023-06-16T18:05:36.119Z,19.20
2023-06-16T18:08:02.929Z,19.15
2023-06-16T18:10:29.736Z,19.05
2023-06-16T18:12:56.507Z,19.00
2023-06-16T18:15:23.335Z,18.87
2023-06-16T18:17:50.467Z,18.87
2023-06-16T18:20:17.619Z,18.74
2023-06-16T18:22:44.606Z,18.79
2023-06-16T18:25:11.387Z,18.67
2023-06-16T18:27:38.212Z,18.67
2023-06-16T18:30:07.042Z,18.50
2023-06-16T18:32:37.527Z,18.32
2023-06-16T18:35:05.399Z,18.21
2023-06-16T18:37:45.202Z,18.18
2023-06-16T18:40:12.409Z,18.18
2023-06-16T18:42:39.260Z,18.02
2023-06-16T18:45:06.875Z,17.94
2023-06-16T18:47:37.611Z,17.82
2023-06-16T18:50:06.309Z,17.74
2023-06-16T18:52:33.295Z,17.56
2023-06-16T18:55:01.105Z,17.40
2023-06-16T18:57:28.293Z,17.27
2023-06-16T18:59:55.554Z,17.24
2023-06-16T19:02:22.427Z,17.14
2023-06-16T19:04:50.123Z,17.16
2023-06-16T19:07:16.919Z,17.01
2023-06-16T19:09:43.697Z,16.67
2023-06-16T19:12:12.770Z,16.79
2023-06-16T19:14:39.904Z,16.67
2023-06-16T19:17:07.702Z,16.69
2023-06-16T19:19:36.187Z,16.72
2023-06-16T19:22:03.050Z,16.68
2023-06-16T19:24:29.955Z,16.58
2023-06-16T19:26:56.828Z,16.52
2023-06-16T19:29:23.656Z,16.38
2023-06-16T19:31:51.446Z,16.22
2023-06-16T19:34:18.332Z,16.10
2023-06-16T19:36:45.628Z,15.97
2023-06-16T19:39:12.430Z,15.84
2023-06-16T19:41:39.963Z,15.67
2023-06-16T19:44:06.725Z,15.62
2023-06-16T19:46:33.670Z,15.53
2023-06-16T19:49:00.882Z,15.67
2023-06-16T19:51:28.067Z,15.63
2023-06-16T19:53:54.910Z,15.58
2023-06-16T19:56:22.858Z,15.58
2023-06-16T19:58:49.665Z,15.54
2023-06-16T20:01:16.607Z,15.48
2023-06-16T20:03:43.619Z,15.46
2023-06-16T20:06:10.672Z,15.57
2023-06-16T20:08:38.407Z,15.47
2023-06-16T20:11:05.328Z,15.43
2023-06-16T20:13:32.224Z,15.34
2023-06-16T20:15:59.094Z,15.25
2023-06-16T20:18:28.802Z,15.24
2023-06-16T20:20:56.604Z,15.14
2023-06-16T20:23:23.560Z,15.02
2023-06-16T20:25:50.493Z,15.01
2023-06-16T20:28:17.507Z,14.90
2023-06-16T20:30:45.066Z,14.90
2023-06-16T20:33:12.127Z,14.86
2023-06-16T20:35:38.994Z,14.84
2023-06-16T20:38:05.803Z,14.80
2023-06-16T20:40:34.289Z,14.84
2023-06-16T20:43:01.959Z,14.70
2023-06-16T20:45:29.408Z,14.74
2023-06-16T20:47:57.241Z,14.73
2023-06-16T20:50:26.880Z,14.74
2023-06-16T20:52:53.939Z,14.62
2023-06-16T20:55:20.772Z,14.53
2023-06-16T20:57:47.764Z,14.49
2023-06-16T21:00:15.074Z,14.43
2023-06-16T21:02:42.009Z,14.41
2023-06-16T21:05:12.159Z,14.23
2023-06-16T21:07:45.487Z,14.26
2023-06-16T21:10:13.339Z,14.11
2023-06-16T21:12:40.368Z,14.04
2023-06-16T21:15:10.656Z,14.03
2023-06-16T21:17:37.845Z,13.92
2023-06-16T21:20:07.661Z,13.85
2023-06-16T21:22:34.520Z,13.87
2023-06-16T21:25:01.324Z,13.76
2023-06-16T21:27:29.636Z,13.72
2023-06-16T21:29:56.872Z,13.59
2023-06-16T21:32:25.312Z,13.64
2023-06-16T21:34:53.456Z,13.64
2023-06-16T21:37:21.974Z,13.67
2023-06-16T21:40:02.681Z,13.65
2023-06-16T21:42:32.303Z,13.60
2023-06-16T21:44:59.266Z,13.48
2023-06-16T21:47:26.204Z,13.40
2023-06-16T21:49:54.613Z,13.45
2023-06-16T21:52:21.489Z,13.43
2023-06-16T21:54:48.429Z,13.37
2023-06-16T21:57:15.414Z,13.38
2023-06-16T21:59:42.299Z,13.36
2023-06-16T22:02:09.139Z,13.40
2023-06-16T22:04:36.220Z,13.29
2023-06-16T22:07:03.053Z,13.22
2023-06-16T22:09:29.885Z,13.18
2023-06-16T22:11:56.618Z,13.11
2023-06-16T22:14:23.587Z,13.02
2023-06-16T22:17:00.712Z,13.09
2023-06-16T22:19:34.919Z,13.13
2023-06-16T22:22:01.767Z,13.02
2023-06-16T22:24:30.345Z,13.01
2023-06-16T22:27:04.700Z,12.94
2023-06-16T22:29:35.800Z,13.00
2023-06-16T22:32:02.720Z,13.00
2023-06-16T22:34:29.627Z,12.95
2023-06-16T22:36:57.786Z,12.99
2023-06-16T22:39:24.797Z,12.90
2023-06-16T22:41:51.621Z,12.89
2023-06-16T22:44:18.530Z,12.92
2023-06-16T22:46:45.440Z,12.93
2023-06-16T22:49:12.246Z,12.84
2023-06-16T22:51:39.116Z,12.85
2023-06-16T22:54:06.076Z,12.89
2023-06-16T22:56:32.930Z,12.88
2023-06-16T22:58:59.877Z,12.83
2023-06-16T23:01:26.762Z,12.88
2023-06-16T23:03:53.591Z,12.76
2023-06-16T23:06:20.637Z,12.77
2023-06-16T23:08:47.461Z,12.62
2023-06-16T23:11:14.260Z,12.69
2023-06-16T23:13:41.185Z,12.77
2023-06-16T23:16:08.189Z,12.81
2023-06-16T23:18:35.381Z,12.74
2023-06-16T23:21:02.840Z,12.84
2023-06-16T23:23:30.585Z,12.77
2023-06-16T23:25:57.488Z,12.80
2023-06-16T23:28:25.592Z,12.67
2023-06-16T23:30:53.217Z,12.68
2023-06-16T23:33:25.947Z,12.59
2023-06-16T23:35:54.604Z,12.48
2023-06-16T23:38:21.962Z,12.55
2023-06-16T23:40:49.145Z,12.54
2023-06-16T23:43:16.671Z,12.44
2023-06-16T23:45:43.546Z,12.46
2023-06-16T23:48:11.088Z,12.28
2023-06-16T23:50:38.022Z,12.16
2023-06-16T23:53:05.618Z,12.41
2023-06-16T23:55:32.486Z,12.38
2023-06-16T23:57:59.247Z,12.32
